sensor_id;sensor_type;location;lat;lon;timestamp;temperature;humidity
74368;DHT22;64991;41.090;-8.118;2023-02-28T00:03:33;16.90;65.20
74368;DHT22;64991;41.090;-8.118;2023-02-28T00:08:38;16.90;64.60
74368;DHT22;64991;41.090;-8.118;2023-02-28T00:13:42;16.80;64.90
74368;DHT22;64991;41.090;-8.118;2023-02-28T00:18:48;16.90;65.00
74368;DHT22;64991;41.090;-8.118;2023-02-28T00:23:53;16.90;64.60
74368;DHT22;64991;41.090;-8.118;2023-02-28T00:28:57;16.90;64.40
74368;DHT22;64991;41.090;-8.118;2023-02-28T00:34:00;16.90;64.30
74368;DHT22;64991;41.090;-8.118;2023-02-28T00:39:05;16.90;63.50
74368;DHT22;64991;41.090;-8.118;2023-02-28T00:44:09;16.80;63.40
74368;DHT22;64991;41.090;-8.118;2023-02-28T00:49:12;16.80;63.30
74368;DHT22;64991;41.090;-8.118;2023-02-28T00:54:18;16.80;63.20
74368;DHT22;64991;41.090;-8.118;2023-02-28T00:59:21;16.80;63.50
74368;DHT22;64991;41.090;-8.118;2023-02-28T01:04:25;16.90;63.20
74368;DHT22;64991;41.090;-8.118;2023-02-28T01:09:30;16.80;62.50
74368;DHT22;64991;41.090;-8.118;2023-02-28T01:14:34;16.80;62.70
74368;DHT22;64991;41.090;-8.118;2023-02-28T01:19:37;16.80;62.70
74368;DHT22;64991;41.090;-8.118;2023-02-28T01:24:42;16.70;62.20
74368;DHT22;64991;41.090;-8.118;2023-02-28T01:29:50;16.80;62.30
74368;DHT22;64991;41.090;-8.118;2023-02-28T01:34:54;16.80;62.30
74368;DHT22;64991;41.090;-8.118;2023-02-28T01:39:59;16.80;62.20
74368;DHT22;64991;41.090;-8.118;2023-02-28T01:45:04;16.80;62.10
74368;DHT22;64991;41.090;-8.118;2023-02-28T01:50:18;16.70;61.20
74368;DHT22;64991;41.090;-8.118;2023-02-28T01:55:25;16.80;61.60
74368;DHT22;64991;41.090;-8.118;2023-02-28T02:00:30;16.80;61.60
74368;DHT22;64991;41.090;-8.118;2023-02-28T02:05:34;16.80;61.40
74368;DHT22;64991;41.090;-8.118;2023-02-28T02:10:42;16.80;60.90
74368;DHT22;64991;41.090;-8.118;2023-02-28T02:15:49;16.70;60.80
74368;DHT22;64991;41.090;-8.118;2023-02-28T02:21:08;16.70;60.90
74368;DHT22;64991;41.090;-8.118;2023-02-28T02:37:35;16.60;60.80
74368;DHT22;64991;41.090;-8.118;2023-02-28T02:42:44;16.70;60.10
74368;DHT22;64991;41.090;-8.118;2023-02-28T02:47:52;16.70;60.40
74368;DHT22;64991;41.090;-8.118;2023-02-28T02:52:58;16.70;60.30
74368;DHT22;64991;41.090;-8.118;2023-02-28T02:58:04;16.60;60.30
74368;DHT22;64991;41.090;-8.118;2023-02-28T03:03:09;16.70;60.20
74368;DHT22;64991;41.090;-8.118;2023-02-28T03:08:15;16.60;60.10
74368;DHT22;64991;41.090;-8.118;2023-02-28T03:13:31;16.60;60.40
74368;DHT22;64991;41.090;-8.118;2023-02-28T03:18:44;16.60;59.90
74368;DHT22;64991;41.090;-8.118;2023-02-28T03:23:53;16.70;59.90
74368;DHT22;64991;41.090;-8.118;2023-02-28T03:29:02;16.60;59.80
74368;DHT22;64991;41.090;-8.118;2023-02-28T03:34:08;16.60;60.00
74368;DHT22;64991;41.090;-8.118;2023-02-28T03:39:17;16.60;59.50
74368;DHT22;64991;41.090;-8.118;2023-02-28T03:44:24;16.60;59.70
74368;DHT22;64991;41.090;-8.118;2023-02-28T03:49:31;16.60;59.00
74368;DHT22;64991;41.090;-8.118;2023-02-28T03:54:40;16.60;59.40
74368;DHT22;64991;41.090;-8.118;2023-02-28T03:59:47;16.50;59.80
74368;DHT22;64991;41.090;-8.118;2023-02-28T04:04:52;16.50;59.00
74368;DHT22;64991;41.090;-8.118;2023-02-28T04:09:57;16.50;59.30
74368;DHT22;64991;41.090;-8.118;2023-02-28T04:15:01;16.50;58.90
74368;DHT22;64991;41.090;-8.118;2023-02-28T04:20:05;16.50;59.00
74368;DHT22;64991;41.090;-8.118;2023-02-28T04:25:12;16.50;59.30
74368;DHT22;64991;41.090;-8.118;2023-02-28T04:30:16;16.40;59.30
74368;DHT22;64991;41.090;-8.118;2023-02-28T04:35:19;16.40;59.10
74368;DHT22;64991;41.090;-8.118;2023-02-28T04:40:24;16.50;58.80
74368;DHT22;64991;41.090;-8.118;2023-02-28T04:45:28;16.50;58.70
74368;DHT22;64991;41.090;-8.118;2023-02-28T04:50:33;16.50;58.80
74368;DHT22;64991;41.090;-8.118;2023-02-28T04:55:38;16.40;58.60
74368;DHT22;64991;41.090;-8.118;2023-02-28T05:00:42;16.40;58.60
74368;DHT22;64991;41.090;-8.118;2023-02-28T05:05:45;16.40;58.40
74368;DHT22;64991;41.090;-8.118;2023-02-28T05:10:50;16.40;58.30
74368;DHT22;64991;41.090;-8.118;2023-02-28T05:15:53;16.30;58.20
74368;DHT22;64991;41.090;-8.118;2023-02-28T05:20:57;16.30;58.30
74368;DHT22;64991;41.090;-8.118;2023-02-28T05:26:04;16.40;57.90
74368;DHT22;64991;41.090;-8.118;2023-02-28T05:31:07;16.30;58.20
74368;DHT22;64991;41.090;-8.118;2023-02-28T05:36:11;16.30;58.20
74368;DHT22;64991;41.090;-8.118;2023-02-28T05:41:16;16.20;58.20
74368;DHT22;64991;41.090;-8.118;2023-02-28T05:46:22;16.30;57.70
74368;DHT22;64991;41.090;-8.118;2023-02-28T05:51:25;16.30;57.80
74368;DHT22;64991;41.090;-8.118;2023-02-28T05:56:30;16.30;57.90
74368;DHT22;64991;41.090;-8.118;2023-02-28T06:01:36;16.20;57.90
74368;DHT22;64991;41.090;-8.118;2023-02-28T06:06:41;16.20;58.10
74368;DHT22;64991;41.090;-8.118;2023-02-28T06:11:45;16.20;57.70
74368;DHT22;64991;41.090;-8.118;2023-02-28T06:16:49;16.20;57.80
74368;DHT22;64991;41.090;-8.118;2023-02-28T06:21:53;16.20;57.70
74368;DHT22;64991;41.090;-8.118;2023-02-28T06:26:58;16.10;57.50
74368;DHT22;64991;41.090;-8.118;2023-02-28T06:32:07;16.20;58.00
74368;DHT22;64991;41.090;-8.118;2023-02-28T06:37:11;16.10;57.80
74368;DHT22;64991;41.090;-8.118;2023-02-28T06:42:16;16.10;57.70
74368;DHT22;64991;41.090;-8.118;2023-02-28T06:47:19;16.10;57.60
74368;DHT22;64991;41.090;-8.118;2023-02-28T06:52:22;16.10;57.70
74368;DHT22;64991;41.090;-8.118;2023-02-28T06:57:28;16.20;57.40
74368;DHT22;64991;41.090;-8.118;2023-02-28T07:02:33;16.10;57.50
74368;DHT22;64991;41.090;-8.118;2023-02-28T07:07:37;16.10;57.40
74368;DHT22;64991;41.090;-8.118;2023-02-28T07:12:45;16.10;57.60
74368;DHT22;64991;41.090;-8.118;2023-02-28T07:17:49;16.00;57.70
74368;DHT22;64991;41.090;-8.118;2023-02-28T07:22:52;16.00;57.70
74368;DHT22;64991;41.090;-8.118;2023-02-28T07:27:59;16.00;57.50
74368;DHT22;64991;41.090;-8.118;2023-02-28T07:33:02;16.00;57.60
74368;DHT22;64991;41.090;-8.118;2023-02-28T07:38:06;16.00;57.80
74368;DHT22;64991;41.090;-8.118;2023-02-28T07:43:11;16.00;57.70
74368;DHT22;64991;41.090;-8.118;2023-02-28T07:48:15;16.10;57.60
74368;DHT22;64991;41.090;-8.118;2023-02-28T07:53:18;16.00;57.50
74368;DHT22;64991;41.090;-8.118;2023-02-28T07:58:24;16.10;57.50
74368;DHT22;64991;41.090;-8.118;2023-02-28T08:03:27;16.00;57.70
74368;DHT22;64991;41.090;-8.118;2023-02-28T08:08:31;16.10;57.40
74368;DHT22;64991;41.090;-8.118;2023-02-28T08:13:36;16.10;57.80
74368;DHT22;64991;41.090;-8.118;2023-02-28T08:18:40;16.00;58.00
74368;DHT22;64991;41.090;-8.118;2023-02-28T08:23:43;16.10;57.20
74368;DHT22;64991;41.090;-8.118;2023-02-28T08:28:48;16.20;57.20
74368;DHT22;64991;41.090;-8.118;2023-02-28T08:33:52;16.20;57.00
74368;DHT22;64991;41.090;-8.118;2023-02-28T08:38:58;16.30;57.00
74368;DHT22;64991;41.090;-8.118;2023-02-28T08:44:04;16.20;56.70
74368;DHT22;64991;41.090;-8.118;2023-02-28T08:49:09;16.30;56.80
74368;DHT22;64991;41.090;-8.118;2023-02-28T08:54:13;16.30;56.70
74368;DHT22;64991;41.090;-8.118;2023-02-28T08:59:22;16.20;56.90
74368;DHT22;64991;41.090;-8.118;2023-02-28T09:04:26;16.20;57.10
74368;DHT22;64991;41.090;-8.118;2023-02-28T09:09:32;16.30;57.20
74368;DHT22;64991;41.090;-8.118;2023-02-28T09:14:37;16.20;56.40
74368;DHT22;64991;41.090;-8.118;2023-02-28T09:19:41;16.30;56.60
74368;DHT22;64991;41.090;-8.118;2023-02-28T09:24:44;16.30;56.40
74368;DHT22;64991;41.090;-8.118;2023-02-28T09:29:49;16.30;57.20
74368;DHT22;64991;41.090;-8.118;2023-02-28T09:34:53;16.30;57.20
74368;DHT22;64991;41.090;-8.118;2023-02-28T09:39:57;16.30;57.20
74368;DHT22;64991;41.090;-8.118;2023-02-28T09:45:03;16.30;57.40
74368;DHT22;64991;41.090;-8.118;2023-02-28T09:50:17;16.20;57.10
74368;DHT22;64991;41.090;-8.118;2023-02-28T09:55:28;16.30;57.10
74368;DHT22;64991;41.090;-8.118;2023-02-28T10:00:43;16.40;57.30
74368;DHT22;64991;41.090;-8.118;2023-02-28T10:05:48;16.30;57.40
74368;DHT22;64991;41.090;-8.118;2023-02-28T10:10:55;16.30;57.50
74368;DHT22;64991;41.090;-8.118;2023-02-28T10:16:03;16.30;57.60
74368;DHT22;64991;41.090;-8.118;2023-02-28T10:21:13;16.30;57.70
74368;DHT22;64991;41.090;-8.118;2023-02-28T10:26:22;16.30;57.30
74368;DHT22;64991;41.090;-8.118;2023-02-28T10:31:28;16.20;57.50
74368;DHT22;64991;41.090;-8.118;2023-02-28T10:36:32;16.30;57.40
74368;DHT22;64991;41.090;-8.118;2023-02-28T10:41:36;16.30;57.60
74368;DHT22;64991;41.090;-8.118;2023-02-28T10:46:47;16.40;57.20
74368;DHT22;64991;41.090;-8.118;2023-02-28T10:51:52;16.40;57.60
74368;DHT22;64991;41.090;-8.118;2023-02-28T11:02:32;16.30;57.40
74368;DHT22;64991;41.090;-8.118;2023-02-28T11:07:37;16.40;57.50
74368;DHT22;64991;41.090;-8.118;2023-02-28T11:12:54;16.40;57.00
74368;DHT22;64991;41.090;-8.118;2023-02-28T11:18:17;16.30;57.50
74368;DHT22;64991;41.090;-8.118;2023-02-28T11:23:25;16.30;57.10
74368;DHT22;64991;41.090;-8.118;2023-02-28T11:28:30;16.40;57.50
74368;DHT22;64991;41.090;-8.118;2023-02-28T11:33:41;16.40;57.40
74368;DHT22;64991;41.090;-8.118;2023-02-28T11:38:46;16.50;57.10
74368;DHT22;64991;41.090;-8.118;2023-02-28T11:44:03;16.40;57.30
74368;DHT22;64991;41.090;-8.118;2023-02-28T11:49:17;16.40;57.40
74368;DHT22;64991;41.090;-8.118;2023-02-28T11:54:39;16.50;57.40
74368;DHT22;64991;41.090;-8.118;2023-02-28T11:59:56;16.40;57.40
74368;DHT22;64991;41.090;-8.118;2023-02-28T12:05:08;16.40;57.40
74368;DHT22;64991;41.090;-8.118;2023-02-28T12:10:19;16.50;57.40
74368;DHT22;64991;41.090;-8.118;2023-02-28T12:15:29;16.40;57.50
74368;DHT22;64991;41.090;-8.118;2023-02-28T12:20:41;16.40;57.60
74368;DHT22;64991;41.090;-8.118;2023-02-28T12:25:50;16.40;57.70
74368;DHT22;64991;41.090;-8.118;2023-02-28T12:31:00;16.50;57.80
74368;DHT22;64991;41.090;-8.118;2023-02-28T12:36:09;16.40;57.50
74368;DHT22;64991;41.090;-8.118;2023-02-28T12:41:15;16.40;57.60
74368;DHT22;64991;41.090;-8.118;2023-02-28T12:46:21;16.50;57.70
74368;DHT22;64991;41.090;-8.118;2023-02-28T12:51:28;16.40;57.80
74368;DHT22;64991;41.090;-8.118;2023-02-28T12:56:38;16.40;57.60
74368;DHT22;64991;41.090;-8.118;2023-02-28T13:01:49;16.50;57.70
74368;DHT22;64991;41.090;-8.118;2023-02-28T13:12:36;16.40;58.10
74368;DHT22;64991;41.090;-8.118;2023-02-28T13:17:39;16.40;58.10
74368;DHT22;64991;41.090;-8.118;2023-02-28T13:22:46;16.50;58.00
74368;DHT22;64991;41.090;-8.118;2023-02-28T13:27:51;16.50;58.10
74368;DHT22;64991;41.090;-8.118;2023-02-28T13:38:31;16.40;57.80
74368;DHT22;64991;41.090;-8.118;2023-02-28T13:43:59;16.40;58.40
74368;DHT22;64991;41.090;-8.118;2023-02-28T13:49:18;16.40;58.50
74368;DHT22;64991;41.090;-8.118;2023-02-28T13:54:30;16.40;58.40
74368;DHT22;64991;41.090;-8.118;2023-02-28T13:59:40;16.30;58.40
74368;DHT22;64991;41.090;-8.118;2023-02-28T14:04:59;16.40;58.80
74368;DHT22;64991;41.090;-8.118;2023-02-28T14:10:06;16.40;58.40
74368;DHT22;64991;41.090;-8.118;2023-02-28T14:15:25;16.40;58.60
74368;DHT22;64991;41.090;-8.118;2023-02-28T14:20:32;16.30;58.70
74368;DHT22;64991;41.090;-8.118;2023-02-28T14:25:38;16.30;58.90
74368;DHT22;64991;41.090;-8.118;2023-02-28T14:30:57;16.20;59.30
74368;DHT22;64991;41.090;-8.118;2023-02-28T14:36:06;16.30;59.50
74368;DHT22;64991;41.090;-8.118;2023-02-28T14:41:20;16.30;59.60
74368;DHT22;64991;41.090;-8.118;2023-02-28T14:46:26;16.40;59.50
74368;DHT22;64991;41.090;-8.118;2023-02-28T14:51:32;16.30;59.20
74368;DHT22;64991;41.090;-8.118;2023-02-28T14:56:37;16.30;59.30
74368;DHT22;64991;41.090;-8.118;2023-02-28T15:01:41;16.30;59.40
74368;DHT22;64991;41.090;-8.118;2023-02-28T15:06:46;16.30;59.60
74368;DHT22;64991;41.090;-8.118;2023-02-28T15:12:12;16.20;60.00
74368;DHT22;64991;41.090;-8.118;2023-02-28T15:17:19;16.20;59.60
74368;DHT22;64991;41.090;-8.118;2023-02-28T15:22:27;16.30;59.70
74368;DHT22;64991;41.090;-8.118;2023-02-28T15:27:36;16.30;59.90
74368;DHT22;64991;41.090;-8.118;2023-02-28T15:32:45;16.20;59.30
74368;DHT22;64991;41.090;-8.118;2023-02-28T15:37:52;16.20;59.70
74368;DHT22;64991;41.090;-8.118;2023-02-28T15:42:59;16.20;59.60
74368;DHT22;64991;41.090;-8.118;2023-02-28T15:48:13;16.20;59.90
74368;DHT22;64991;41.090;-8.118;2023-02-28T15:53:21;16.20;59.60
74368;DHT22;64991;41.090;-8.118;2023-02-28T15:58:27;16.20;60.00
74368;DHT22;64991;41.090;-8.118;2023-02-28T16:03:35;16.10;60.00
74368;DHT22;64991;41.090;-8.118;2023-02-28T16:08:44;16.30;60.10
74368;DHT22;64991;41.090;-8.118;2023-02-28T16:13:49;16.50;60.00
74368;DHT22;64991;41.090;-8.118;2023-02-28T16:18:53;16.50;60.20
74368;DHT22;64991;41.090;-8.118;2023-02-28T16:23:57;16.60;60.30
74368;DHT22;64991;41.090;-8.118;2023-02-28T16:29:02;16.70;60.30
74368;DHT22;64991;41.090;-8.118;2023-02-28T16:34:06;16.80;60.10
74368;DHT22;64991;41.090;-8.118;2023-02-28T16:39:09;16.90;60.30
74368;DHT22;64991;41.090;-8.118;2023-02-28T16:49:36;17.10;60.10
74368;DHT22;64991;41.090;-8.118;2023-02-28T16:54:40;17.30;59.80
74368;DHT22;64991;41.090;-8.118;2023-02-28T16:59:45;17.40;59.30
74368;DHT22;64991;41.090;-8.118;2023-02-28T17:04:49;17.40;59.50
74368;DHT22;64991;41.090;-8.118;2023-02-28T17:09:52;17.40;59.10
74368;DHT22;64991;41.090;-8.118;2023-02-28T17:14:57;17.50;58.80
74368;DHT22;64991;41.090;-8.118;2023-02-28T17:20:01;17.60;59.00
74368;DHT22;64991;41.090;-8.118;2023-02-28T17:25:05;17.60;59.30
74368;DHT22;64991;41.090;-8.118;2023-02-28T17:30:15;17.60;59.60
74368;DHT22;64991;41.090;-8.118;2023-02-28T17:35:20;17.40;59.90
74368;DHT22;64991;41.090;-8.118;2023-02-28T17:40:24;17.40;60.60
74368;DHT22;64991;41.090;-8.118;2023-02-28T17:45:29;17.30;60.70
74368;DHT22;64991;41.090;-8.118;2023-02-28T17:50:33;17.30;60.80
74368;DHT22;64991;41.090;-8.118;2023-02-28T17:55:36;17.10;60.90
74368;DHT22;64991;41.090;-8.118;2023-02-28T18:00:41;17.10;61.00
74368;DHT22;64991;41.090;-8.118;2023-02-28T18:05:45;17.00;61.10
74368;DHT22;64991;41.090;-8.118;2023-02-28T18:10:49;17.00;61.10
74368;DHT22;64991;41.090;-8.118;2023-02-28T18:15:54;17.00;61.20
74368;DHT22;64991;41.090;-8.118;2023-02-28T18:20:57;16.90;61.40
74368;DHT22;64991;41.090;-8.118;2023-02-28T18:26:04;16.90;61.50
74368;DHT22;64991;41.090;-8.118;2023-02-28T18:31:11;16.90;61.40
74368;DHT22;64991;41.090;-8.118;2023-02-28T18:36:17;16.80;61.50
74368;DHT22;64991;41.090;-8.118;2023-02-28T18:41:21;16.80;61.50
74368;DHT22;64991;41.090;-8.118;2023-02-28T18:46:26;16.80;61.30
74368;DHT22;64991;41.090;-8.118;2023-02-28T18:51:31;16.90;61.40
74368;DHT22;64991;41.090;-8.118;2023-02-28T18:56:34;16.90;61.30
74368;DHT22;64991;41.090;-8.118;2023-02-28T19:01:39;16.90;61.10
74368;DHT22;64991;41.090;-8.118;2023-02-28T19:06:42;16.90;61.10
74368;DHT22;64991;41.090;-8.118;2023-02-28T19:11:46;16.90;61.30
74368;DHT22;64991;41.090;-8.118;2023-02-28T19:16:51;16.80;61.20
74368;DHT22;64991;41.090;-8.118;2023-02-28T19:21:54;16.90;61.10
74368;DHT22;64991;41.090;-8.118;2023-02-28T19:26:58;16.90;61.40
74368;DHT22;64991;41.090;-8.118;2023-02-28T19:32:03;16.80;61.30
74368;DHT22;64991;41.090;-8.118;2023-02-28T19:37:06;16.90;61.40
74368;DHT22;64991;41.090;-8.118;2023-02-28T19:42:11;16.80;61.20
74368;DHT22;64991;41.090;-8.118;2023-02-28T19:47:16;16.80;61.50
74368;DHT22;64991;41.090;-8.118;2023-02-28T19:52:20;16.70;61.40
74368;DHT22;64991;41.090;-8.118;2023-02-28T19:57:24;16.80;61.40
74368;DHT22;64991;41.090;-8.118;2023-02-28T20:02:28;16.80;61.40
74368;DHT22;64991;41.090;-8.118;2023-02-28T20:07:32;16.80;61.40
74368;DHT22;64991;41.090;-8.118;2023-02-28T20:12:36;16.80;61.50
74368;DHT22;64991;41.090;-8.118;2023-02-28T20:17:41;16.80;61.40
74368;DHT22;64991;41.090;-8.118;2023-02-28T20:22:47;16.80;61.00
74368;DHT22;64991;41.090;-8.118;2023-02-28T20:27:51;16.80;61.10
74368;DHT22;64991;41.090;-8.118;2023-02-28T20:32:56;16.70;61.30
74368;DHT22;64991;41.090;-8.118;2023-02-28T20:37:59;16.70;61.20
74368;DHT22;64991;41.090;-8.118;2023-02-28T20:43:03;16.60;61.30
74368;DHT22;64991;41.090;-8.118;2023-02-28T20:48:08;16.80;61.30
74368;DHT22;64991;41.090;-8.118;2023-02-28T20:53:12;16.60;61.30
74368;DHT22;64991;41.090;-8.118;2023-02-28T20:58:16;16.80;61.30
74368;DHT22;64991;41.090;-8.118;2023-02-28T21:03:20;16.70;61.40
74368;DHT22;64991;41.090;-8.118;2023-02-28T21:08:24;16.60;61.60
74368;DHT22;64991;41.090;-8.118;2023-02-28T21:13:27;16.60;61.60
74368;DHT22;64991;41.090;-8.118;2023-02-28T21:18:33;16.50;61.60
74368;DHT22;64991;41.090;-8.118;2023-02-28T21:23:37;16.50;61.40
74368;DHT22;64991;41.090;-8.118;2023-02-28T21:28:41;16.50;61.60
74368;DHT22;64991;41.090;-8.118;2023-02-28T21:33:47;16.40;61.60
74368;DHT22;64991;41.090;-8.118;2023-02-28T21:38:53;16.40;62.00
74368;DHT22;64991;41.090;-8.118;2023-02-28T21:43:58;16.40;61.80
74368;DHT22;64991;41.090;-8.118;2023-02-28T21:49:03;16.30;61.90
74368;DHT22;64991;41.090;-8.118;2023-02-28T21:54:06;16.50;61.50
74368;DHT22;64991;41.090;-8.118;2023-02-28T21:59:10;16.50;61.40
74368;DHT22;64991;41.090;-8.118;2023-02-28T22:04:16;16.40;61.60
74368;DHT22;64991;41.090;-8.118;2023-02-28T22:09:23;16.40;61.40
74368;DHT22;64991;41.090;-8.118;2023-02-28T22:14:27;16.40;61.40
74368;DHT22;64991;41.090;-8.118;2023-02-28T22:19:32;16.50;61.30
74368;DHT22;64991;41.090;-8.118;2023-02-28T22:24:36;16.50;61.50
74368;DHT22;64991;41.090;-8.118;2023-02-28T22:29:40;16.40;61.20
74368;DHT22;64991;41.090;-8.118;2023-02-28T22:34:45;16.50;61.30
74368;DHT22;64991;41.090;-8.118;2023-02-28T22:39:52;16.40;61.40
74368;DHT22;64991;41.090;-8.118;2023-02-28T22:44:56;16.40;61.20
74368;DHT22;64991;41.090;-8.118;2023-02-28T22:50:00;16.50;61.50
74368;DHT22;64991;41.090;-8.118;2023-02-28T22:55:04;16.40;61.30
74368;DHT22;64991;41.090;-8.118;2023-02-28T23:00:09;16.30;61.40
74368;DHT22;64991;41.090;-8.118;2023-02-28T23:05:17;16.20;61.30
74368;DHT22;64991;41.090;-8.118;2023-02-28T23:10:21;16.30;61.20
74368;DHT22;64991;41.090;-8.118;2023-02-28T23:15:24;16.30;61.40
74368;DHT22;64991;41.090;-8.118;2023-02-28T23:20:29;16.20;61.40
74368;DHT22;64991;41.090;-8.118;2023-02-28T23:25:33;16.30;61.40
74368;DHT22;64991;41.090;-8.118;2023-02-28T23:30:36;16.30;61.40
74368;DHT22;64991;41.090;-8.118;2023-02-28T23:35:41;16.30;61.30
74368;DHT22;64991;41.090;-8.118;2023-02-28T23:40:45;16.20;61.10
74368;DHT22;64991;41.090;-8.118;2023-02-28T23:45:53;16.30;61.20
74368;DHT22;64991;41.090;-8.118;2023-02-28T23:51:02;16.30;61.50
74368;DHT22;64991;41.090;-8.118;2023-02-28T23:56:10;16.30;61.20
